Terminal Aerodrome Forecast
Issued by NWS

Home | Current Version | Previous Version | Text Only | Print | Product List | Glossary On
Versions: 1 2 3 4 5 6 7 8 9 10 11 12 13 14 15 16 17 18 19 20 21
336
FTUS42 TJSJ 171300 AAB
TAFJSJ
TAF AMD
TJSJ 171300Z 1713/1812 12010KT 6SM -SHRA SCT020 BKN060
     FM171530 08015KT P6SM VCTS SCT025CB BKN050
     FM172300 09012KT P6SM SCT060=

USA.gov is the U.S. government's official web portal to all federal, state and local government web resources and services.